sensor_id;sensor_type;location;lat;lon;timestamp;pressure;altitude;pressure_sealevel;temperature;humidity
9672;BME280;4874;43.568;27.824;2022-10-14T00:00:06;99532.81;;;11.82;100.00
9672;BME280;4874;43.568;27.824;2022-10-14T00:02:32;99529.16;;;11.74;100.00
9672;BME280;4874;43.568;27.824;2022-10-14T00:04:59;99527.34;;;11.84;100.00
9672;BME280;4874;43.568;27.824;2022-10-14T00:07:26;99519.06;;;11.97;100.00
9672;BME280;4874;43.568;27.824;2022-10-14T00:09:52;99524.56;;;12.05;100.00
9672;BME280;4874;43.568;27.824;2022-10-14T00:12:19;99515.44;;;11.78;100.00
9672;BME280;4874;43.568;27.824;2022-10-14T00:14:45;99518.78;;;11.71;100.00
9672;BME280;4874;43.568;27.824;2022-10-14T00:17:12;99515.28;;;11.80;100.00
9672;BME280;4874;43.568;27.824;2022-10-14T00:19:39;99513.06;;;11.85;100.00
9672;BME280;4874;43.568;27.824;2022-10-14T00:22:05;99508.41;;;11.77;100.00
9672;BME280;4874;43.568;27.824;2022-10-14T00:24:32;99508.00;;;11.92;100.00
9672;BME280;4874;43.568;27.824;2022-10-14T00:26:59;99509.56;;;11.94;100.00
9672;BME280;4874;43.568;27.824;2022-10-14T00:29:25;99514.88;;;12.04;100.00
9672;BME280;4874;43.568;27.824;2022-10-14T00:31:52;99503.13;;;11.97;100.00
9672;BME280;4874;43.568;27.824;2022-10-14T00:34:19;99498.50;;;12.08;100.00
9672;BME280;4874;43.568;27.824;2022-10-14T00:36:45;99497.81;;;12.06;100.00
9672;BME280;4874;43.568;27.824;2022-10-14T00:39:12;99494.88;;;11.80;100.00
9672;BME280;4874;43.568;27.824;2022-10-14T00:41:39;99498.78;;;11.67;100.00
9672;BME280;4874;43.568;27.824;2022-10-14T00:46:38;99490.03;;;11.36;100.00
9672;BME280;4874;43.568;27.824;2022-10-14T00:49:20;99486.66;;;11.44;100.00
9672;BME280;4874;43.568;27.824;2022-10-14T00:51:58;99477.41;;;11.38;100.00
9672;BME280;4874;43.568;27.824;2022-10-14T00:54:32;99488.97;;;11.28;100.00
9672;BME280;4874;43.568;27.824;2022-10-14T00:57:00;99484.38;;;11.20;100.00
9672;BME280;4874;43.568;27.824;2022-10-14T00:59:28;99482.31;;;11.43;100.00
9672;BME280;4874;43.568;27.824;2022-10-14T01:01:55;99484.28;;;11.50;100.00
9672;BME280;4874;43.568;27.824;2022-10-14T01:04:21;99479.91;;;11.40;100.00
9672;BME280;4874;43.568;27.824;2022-10-14T01:17:52;99464.41;;;11.35;100.00
9672;BME280;4874;43.568;27.824;2022-10-14T01:20:30;99470.84;;;11.33;100.00
9672;BME280;4874;43.568;27.824;2022-10-14T01:31:21;99443.16;;;11.54;100.00
9672;BME280;4874;43.568;27.824;2022-10-14T01:33:52;99456.16;;;11.48;100.00
9672;BME280;4874;43.568;27.824;2022-10-14T01:36:34;99465.03;;;11.67;100.00
9672;BME280;4874;43.568;27.824;2022-10-14T01:39:11;99450.56;;;11.60;100.00
9672;BME280;4874;43.568;27.824;2022-10-14T01:41:44;99456.72;;;11.42;100.00
9672;BME280;4874;43.568;27.824;2022-10-14T01:44:15;99460.91;;;11.44;100.00
9672;BME280;4874;43.568;27.824;2022-10-14T01:46:47;99442.69;;;11.30;100.00
9672;BME280;4874;43.568;27.824;2022-10-14T01:49:31;99452.84;;;11.06;100.00
9672;BME280;4874;43.568;27.824;2022-10-14T01:52:11;99430.63;;;11.07;100.00
9672;BME280;4874;43.568;27.824;2022-10-14T01:54:41;99453.72;;;11.16;100.00
9672;BME280;4874;43.568;27.824;2022-10-14T01:57:17;99448.25;;;11.18;100.00
9672;BME280;4874;43.568;27.824;2022-10-14T01:59:45;99423.47;;;10.98;100.00
9672;BME280;4874;43.568;27.824;2022-10-14T02:02:12;99450.84;;;10.99;100.00
9672;BME280;4874;43.568;27.824;2022-10-14T02:04:39;99450.34;;;11.14;100.00
9672;BME280;4874;43.568;27.824;2022-10-14T02:07:56;99449.69;;;11.31;100.00
9672;BME280;4874;43.568;27.824;2022-10-14T02:16:05;99466.84;;;11.08;100.00
9672;BME280;4874;43.568;27.824;2022-10-14T02:18:55;99462.63;;;11.06;100.00
9672;BME280;4874;43.568;27.824;2022-10-14T02:21:31;99462.06;;;11.02;100.00
9672;BME280;4874;43.568;27.824;2022-10-14T02:24:12;99431.69;;;10.86;100.00
9672;BME280;4874;43.568;27.824;2022-10-14T02:26:42;99465.19;;;11.17;100.00
9672;BME280;4874;43.568;27.824;2022-10-14T02:29:10;99458.78;;;11.29;100.00
9672;BME280;4874;43.568;27.824;2022-10-14T02:31:38;99455.13;;;11.20;100.00
9672;BME280;4874;43.568;27.824;2022-10-14T02:34:09;99461.41;;;11.10;100.00
9672;BME280;4874;43.568;27.824;2022-10-14T02:36:37;99465.53;;;11.33;100.00
9672;BME280;4874;43.568;27.824;2022-10-14T02:39:06;99455.28;;;11.28;100.00
9672;BME280;4874;43.568;27.824;2022-10-14T02:41:36;99472.22;;;11.27;100.00
9672;BME280;4874;43.568;27.824;2022-10-14T02:44:04;99460.88;;;11.25;100.00
9672;BME280;4874;43.568;27.824;2022-10-14T02:46:32;99461.97;;;11.23;100.00
9672;BME280;4874;43.568;27.824;2022-10-14T02:48:59;99467.91;;;11.45;100.00
9672;BME280;4874;43.568;27.824;2022-10-14T02:51:26;99464.25;;;11.37;100.00
9672;BME280;4874;43.568;27.824;2022-10-14T02:53:53;99466.25;;;10.95;100.00
9672;BME280;4874;43.568;27.824;2022-10-14T02:56:19;99461.03;;;10.84;100.00
9672;BME280;4874;43.568;27.824;2022-10-14T02:58:46;99460.31;;;10.82;100.00
9672;BME280;4874;43.568;27.824;2022-10-14T03:01:12;99448.34;;;10.57;100.00
9672;BME280;4874;43.568;27.824;2022-10-14T03:03:39;99450.59;;;10.62;100.00
9672;BME280;4874;43.568;27.824;2022-10-14T03:06:06;99444.50;;;10.71;100.00
9672;BME280;4874;43.568;27.824;2022-10-14T03:08:33;99436.09;;;10.66;100.00
9672;BME280;4874;43.568;27.824;2022-10-14T03:10:59;99443.94;;;10.77;100.00
9672;BME280;4874;43.568;27.824;2022-10-14T03:13:26;99440.66;;;10.94;100.00
9672;BME280;4874;43.568;27.824;2022-10-14T03:15:53;99430.31;;;10.91;100.00
9672;BME280;4874;43.568;27.824;2022-10-14T03:18:19;99443.59;;;10.91;100.00
9672;BME280;4874;43.568;27.824;2022-10-14T03:20:47;99444.59;;;11.09;100.00
9672;BME280;4874;43.568;27.824;2022-10-14T03:23:13;99442.16;;;10.87;100.00
9672;BME280;4874;43.568;27.824;2022-10-14T03:25:42;99451.75;;;10.69;100.00
9672;BME280;4874;43.568;27.824;2022-10-14T03:28:10;99445.59;;;10.68;100.00
9672;BME280;4874;43.568;27.824;2022-10-14T03:30:37;99405.91;;;10.67;100.00
9672;BME280;4874;43.568;27.824;2022-10-14T03:33:04;99430.88;;;11.04;100.00
9672;BME280;4874;43.568;27.824;2022-10-14T03:35:31;99418.88;;;11.10;100.00
9672;BME280;4874;43.568;27.824;2022-10-14T03:37:58;99423.63;;;10.97;100.00
9672;BME280;4874;43.568;27.824;2022-10-14T03:40:28;99420.25;;;10.95;100.00
9672;BME280;4874;43.568;27.824;2022-10-14T03:42:59;99395.91;;;10.90;100.00
9672;BME280;4874;43.568;27.824;2022-10-14T03:45:27;99417.22;;;11.09;100.00
9672;BME280;4874;43.568;27.824;2022-10-14T03:47:54;99394.03;;;10.71;100.00
9672;BME280;4874;43.568;27.824;2022-10-14T03:50:21;99418.59;;;11.03;100.00
9672;BME280;4874;43.568;27.824;2022-10-14T03:52:48;99410.72;;;10.83;100.00
9672;BME280;4874;43.568;27.824;2022-10-14T03:55:20;99415.41;;;10.69;100.00
9672;BME280;4874;43.568;27.824;2022-10-14T03:57:46;99416.16;;;10.81;100.00
9672;BME280;4874;43.568;27.824;2022-10-14T04:00:13;99412.50;;;10.73;100.00
9672;BME280;4874;43.568;27.824;2022-10-14T04:02:40;99410.44;;;10.86;100.00
9672;BME280;4874;43.568;27.824;2022-10-14T04:05:07;99408.06;;;10.92;100.00
9672;BME280;4874;43.568;27.824;2022-10-14T04:07:34;99389.91;;;10.97;100.00
9672;BME280;4874;43.568;27.824;2022-10-14T04:10:01;99408.06;;;10.92;100.00
9672;BME280;4874;43.568;27.824;2022-10-14T04:12:27;99411.56;;;10.83;100.00
9672;BME280;4874;43.568;27.824;2022-10-14T04:14:54;99410.84;;;10.81;100.00
9672;BME280;4874;43.568;27.824;2022-10-14T04:17:23;99407.69;;;10.97;100.00
9672;BME280;4874;43.568;27.824;2022-10-14T04:19:51;99409.84;;;10.82;100.00
9672;BME280;4874;43.568;27.824;2022-10-14T04:22:18;99403.88;;;10.90;100.00
9672;BME280;4874;43.568;27.824;2022-10-14T04:24:45;99398.44;;;10.91;100.00
9672;BME280;4874;43.568;27.824;2022-10-14T04:27:12;99405.16;;;10.95;100.00
9672;BME280;4874;43.568;27.824;2022-10-14T04:29:38;99401.09;;;11.01;100.00
9672;BME280;4874;43.568;27.824;2022-10-14T04:32:05;99410.47;;;11.05;100.00
9672;BME280;4874;43.568;27.824;2022-10-14T04:34:32;99398.34;;;11.12;100.00
9672;BME280;4874;43.568;27.824;2022-10-14T04:36:58;99405.75;;;11.08;100.00
9672;BME280;4874;43.568;27.824;2022-10-14T04:39:25;99399.22;;;10.82;100.00
9672;BME280;4874;43.568;27.824;2022-10-14T04:41:52;99397.63;;;11.00;100.00
9672;BME280;4874;43.568;27.824;2022-10-14T04:44:18;99395.91;;;10.99;100.00
9672;BME280;4874;43.568;27.824;2022-10-14T04:46:45;99399.72;;;11.06;100.00
9672;BME280;4874;43.568;27.824;2022-10-14T04:49:12;99399.72;;;10.97;100.00
9672;BME280;4874;43.568;27.824;2022-10-14T04:51:40;99401.09;;;10.91;100.00
9672;BME280;4874;43.568;27.824;2022-10-14T04:54:06;99412.44;;;11.03;100.00
9672;BME280;4874;43.568;27.824;2022-10-14T04:56:33;99408.81;;;11.13;100.00
9672;BME280;4874;43.568;27.824;2022-10-14T04:59:00;99409.72;;;11.33;100.00
9672;BME280;4874;43.568;27.824;2022-10-14T05:01:27;99388.13;;;11.07;100.00
9672;BME280;4874;43.568;27.824;2022-10-14T05:03:59;99413.56;;;11.19;100.00
9672;BME280;4874;43.568;27.824;2022-10-14T05:06:25;99411.91;;;11.28;100.00
9672;BME280;4874;43.568;27.824;2022-10-14T05:08:52;99413.31;;;11.22;100.00
9672;BME280;4874;43.568;27.824;2022-10-14T05:11:19;99420.44;;;11.31;100.00
9672;BME280;4874;43.568;27.824;2022-10-14T05:13:47;99415.44;;;11.47;100.00
9672;BME280;4874;43.568;27.824;2022-10-14T05:16:14;99422.72;;;11.36;100.00
9672;BME280;4874;43.568;27.824;2022-10-14T05:18:42;99422.28;;;11.40;100.00
9672;BME280;4874;43.568;27.824;2022-10-14T05:21:09;99420.63;;;11.49;100.00
9672;BME280;4874;43.568;27.824;2022-10-14T05:23:36;99413.81;;;11.65;100.00
9672;BME280;4874;43.568;27.824;2022-10-14T05:26:04;99418.84;;;11.78;100.00
9672;BME280;4874;43.568;27.824;2022-10-14T05:28:31;99409.13;;;11.48;100.00
9672;BME280;4874;43.568;27.824;2022-10-14T05:30:59;99411.66;;;11.40;100.00
9672;BME280;4874;43.568;27.824;2022-10-14T05:33:27;99397.53;;;11.49;100.00
9672;BME280;4874;43.568;27.824;2022-10-14T05:35:54;99414.28;;;11.21;100.00
9672;BME280;4874;43.568;27.824;2022-10-14T05:38:25;99376.56;;;10.78;100.00
9672;BME280;4874;43.568;27.824;2022-10-14T05:40:54;99410.81;;;11.30;100.00
9672;BME280;4874;43.568;27.824;2022-10-14T05:43:22;99412.78;;;11.47;100.00
9672;BME280;4874;43.568;27.824;2022-10-14T05:45:56;99425.97;;;11.58;100.00
9672;BME280;4874;43.568;27.824;2022-10-14T05:48:23;99416.19;;;11.68;100.00
9672;BME280;4874;43.568;27.824;2022-10-14T05:50:51;99425.00;;;11.98;100.00
9672;BME280;4874;43.568;27.824;2022-10-14T05:53:19;99405.63;;;12.05;100.00
9672;BME280;4874;43.568;27.824;2022-10-14T05:55:46;99418.84;;;11.88;100.00
9672;BME280;4874;43.568;27.824;2022-10-14T05:58:14;99424.56;;;12.02;100.00
9672;BME280;4874;43.568;27.824;2022-10-14T06:00:41;99443.03;;;11.84;100.00
9672;BME280;4874;43.568;27.824;2022-10-14T06:03:10;99439.66;;;11.44;100.00
9672;BME280;4874;43.568;27.824;2022-10-14T06:05:38;99437.00;;;11.44;100.00
9672;BME280;4874;43.568;27.824;2022-10-14T06:08:06;99440.03;;;11.21;100.00
9672;BME280;4874;43.568;27.824;2022-10-14T06:10:34;99438.53;;;11.37;100.00
9672;BME280;4874;43.568;27.824;2022-10-14T06:13:02;99442.34;;;11.63;100.00
9672;BME280;4874;43.568;27.824;2022-10-14T06:15:29;99443.63;;;11.78;100.00
9672;BME280;4874;43.568;27.824;2022-10-14T06:17:58;99444.88;;;12.03;100.00
9672;BME280;4874;43.568;27.824;2022-10-14T06:20:26;99448.34;;;12.23;100.00
9672;BME280;4874;43.568;27.824;2022-10-14T06:22:54;99442.75;;;12.16;100.00
9672;BME280;4874;43.568;27.824;2022-10-14T06:25:22;99447.84;;;12.46;100.00
9672;BME280;4874;43.568;27.824;2022-10-14T06:27:50;99433.06;;;12.25;100.00
9672;BME280;4874;43.568;27.824;2022-10-14T06:30:17;99370.28;;;12.22;100.00
9672;BME280;4874;43.568;27.824;2022-10-14T06:32:47;99438.63;;;12.87;100.00
9672;BME280;4874;43.568;27.824;2022-10-14T06:35:15;99433.69;;;13.19;100.00
9672;BME280;4874;43.568;27.824;2022-10-14T06:37:44;99440.56;;;13.39;100.00
9672;BME280;4874;43.568;27.824;2022-10-14T06:40:12;99438.22;;;13.36;100.00
9672;BME280;4874;43.568;27.824;2022-10-14T06:42:40;99442.28;;;13.58;100.00
9672;BME280;4874;43.568;27.824;2022-10-14T06:45:08;99437.31;;;13.63;100.00
9672;BME280;4874;43.568;27.824;2022-10-14T06:47:37;99430.00;;;13.82;100.00
9672;BME280;4874;43.568;27.824;2022-10-14T06:50:06;99439.06;;;13.72;100.00
9672;BME280;4874;43.568;27.824;2022-10-14T06:52:35;99437.25;;;13.72;100.00
9672;BME280;4874;43.568;27.824;2022-10-14T06:55:03;99411.47;;;13.63;100.00
9672;BME280;4874;43.568;27.824;2022-10-14T06:57:31;99440.75;;;13.90;100.00
9672;BME280;4874;43.568;27.824;2022-10-14T06:59:58;99435.06;;;14.11;100.00
9672;BME280;4874;43.568;27.824;2022-10-14T07:02:26;99414.50;;;14.03;100.00
9672;BME280;4874;43.568;27.824;2022-10-14T07:04:54;99435.13;;;14.37;100.00
9672;BME280;4874;43.568;27.824;2022-10-14T07:07:22;99424.56;;;14.53;100.00
9672;BME280;4874;43.568;27.824;2022-10-14T07:09:50;99431.91;;;14.59;100.00
9672;BME280;4874;43.568;27.824;2022-10-14T07:12:18;99429.16;;;14.68;100.00
9672;BME280;4874;43.568;27.824;2022-10-14T07:14:48;99426.63;;;15.00;100.00
9672;BME280;4874;43.568;27.824;2022-10-14T07:17:18;99431.22;;;15.24;100.00
9672;BME280;4874;43.568;27.824;2022-10-14T07:19:46;99421.19;;;15.18;100.00
9672;BME280;4874;43.568;27.824;2022-10-14T07:22:14;99418.44;;;15.44;100.00
9672;BME280;4874;43.568;27.824;2022-10-14T07:24:45;99409.09;;;15.64;100.00
9672;BME280;4874;43.568;27.824;2022-10-14T07:27:12;99412.28;;;15.67;100.00
9672;BME280;4874;43.568;27.824;2022-10-14T07:29:44;99413.81;;;15.86;100.00
9672;BME280;4874;43.568;27.824;2022-10-14T07:32:15;99413.97;;;16.24;100.00
9672;BME280;4874;43.568;27.824;2022-10-14T07:34:44;99408.78;;;16.23;100.00
9672;BME280;4874;43.568;27.824;2022-10-14T07:37:11;99402.22;;;16.33;100.00
9672;BME280;4874;43.568;27.824;2022-10-14T07:39:45;99403.06;;;16.34;100.00
9672;BME280;4874;43.568;27.824;2022-10-14T07:42:14;99403.06;;;16.34;100.00
9672;BME280;4874;43.568;27.824;2022-10-14T07:44:42;99403.53;;;16.62;100.00
9672;BME280;4874;43.568;27.824;2022-10-14T07:47:12;99397.81;;;16.73;100.00
9672;BME280;4874;43.568;27.824;2022-10-14T07:49:41;99398.56;;;16.51;100.00
9672;BME280;4874;43.568;27.824;2022-10-14T07:52:10;99400.00;;;16.61;100.00
9672;BME280;4874;43.568;27.824;2022-10-14T07:54:38;99388.13;;;16.64;100.00
9672;BME280;4874;43.568;27.824;2022-10-14T07:57:08;99391.13;;;16.69;100.00
9672;BME280;4874;43.568;27.824;2022-10-14T07:59:36;99388.25;;;16.70;100.00
9672;BME280;4874;43.568;27.824;2022-10-14T08:02:17;99391.22;;;16.83;100.00
9672;BME280;4874;43.568;27.824;2022-10-14T08:04:45;99381.16;;;16.93;100.00
9672;BME280;4874;43.568;27.824;2022-10-14T08:07:14;99369.75;;;16.91;100.00
9672;BME280;4874;43.568;27.824;2022-10-14T08:09:42;99378.94;;;16.97;100.00
9672;BME280;4874;43.568;27.824;2022-10-14T08:12:10;99375.56;;;17.03;100.00
9672;BME280;4874;43.568;27.824;2022-10-14T08:14:46;99382.22;;;16.76;100.00
9672;BME280;4874;43.568;27.824;2022-10-14T08:17:16;99367.09;;;16.83;100.00
9672;BME280;4874;43.568;27.824;2022-10-14T08:19:45;99377.88;;;17.06;100.00
9672;BME280;4874;43.568;27.824;2022-10-14T08:22:16;99374.94;;;16.93;100.00
9672;BME280;4874;43.568;27.824;2022-10-14T08:24:55;99379.31;;;16.86;100.00
9672;BME280;4874;43.568;27.824;2022-10-14T08:27:35;99370.56;;;16.92;100.00
9672;BME280;4874;43.568;27.824;2022-10-14T08:30:10;99306.28;;;16.29;100.00
9672;BME280;4874;43.568;27.824;2022-10-14T08:32:39;99379.56;;;16.68;100.00
9672;BME280;4874;43.568;27.824;2022-10-14T08:35:20;99373.88;;;16.71;100.00
9672;BME280;4874;43.568;27.824;2022-10-14T08:38:00;99378.75;;;16.68;100.00
9672;BME280;4874;43.568;27.824;2022-10-14T08:46:46;99376.63;;;16.47;100.00
9672;BME280;4874;43.568;27.824;2022-10-14T08:52:24;99380.75;;;16.66;100.00
9672;BME280;4874;43.568;27.824;2022-10-14T08:54:57;99379.13;;;16.49;100.00
9672;BME280;4874;43.568;27.824;2022-10-14T08:57:33;99386.47;;;16.55;100.00
9672;BME280;4874;43.568;27.824;2022-10-14T09:00:09;99385.94;;;16.67;100.00
9672;BME280;4874;43.568;27.824;2022-10-14T09:02:46;99382.38;;;16.83;100.00
9672;BME280;4874;43.568;27.824;2022-10-14T09:05:23;99379.38;;;16.78;100.00
9672;BME280;4874;43.568;27.824;2022-10-14T09:07:54;99387.91;;;16.81;100.00
9672;BME280;4874;43.568;27.824;2022-10-14T09:10:42;99377.31;;;16.88;100.00
9672;BME280;4874;43.568;27.824;2022-10-14T09:13:20;99392.19;;;16.90;100.00
9672;BME280;4874;43.568;27.824;2022-10-14T09:16:01;99367.00;;;16.69;100.00
9672;BME280;4874;43.568;27.824;2022-10-14T09:18:39;99378.53;;;16.77;100.00
9672;BME280;4874;43.568;27.824;2022-10-14T09:24:29;99383.03;;;16.77;100.00
9672;BME280;4874;43.568;27.824;2022-10-14T09:27:18;99365.59;;;16.81;100.00
9672;BME280;4874;43.568;27.824;2022-10-14T09:30:05;99341.03;;;17.00;100.00
9672;BME280;4874;43.568;27.824;2022-10-14T09:32:55;99358.94;;;17.38;100.00
9672;BME280;4874;43.568;27.824;2022-10-14T09:35:28;99366.53;;;17.57;100.00
9672;BME280;4874;43.568;27.824;2022-10-14T09:37:58;99354.25;;;17.32;100.00
9672;BME280;4874;43.568;27.824;2022-10-14T09:40:44;99350.69;;;17.17;100.00
9672;BME280;4874;43.568;27.824;2022-10-14T09:43:20;99385.19;;;17.20;100.00
9672;BME280;4874;43.568;27.824;2022-10-14T09:48:48;99360.03;;;17.21;100.00
9672;BME280;4874;43.568;27.824;2022-10-14T09:53:50;99363.97;;;17.33;100.00
9672;BME280;4874;43.568;27.824;2022-10-14T09:56:35;99375.63;;;17.93;100.00
9672;BME280;4874;43.568;27.824;2022-10-14T09:59:14;99379.34;;;18.29;100.00
9672;BME280;4874;43.568;27.824;2022-10-14T10:01:53;99379.66;;;18.12;100.00
9672;BME280;4874;43.568;27.824;2022-10-14T10:07:03;99388.13;;;17.86;100.00
9672;BME280;4874;43.568;27.824;2022-10-14T10:09:32;99374.06;;;17.62;100.00
9672;BME280;4874;43.568;27.824;2022-10-14T10:12:42;99381.47;;;17.82;100.00
9672;BME280;4874;43.568;27.824;2022-10-14T10:15:19;99387.63;;;17.83;100.00
9672;BME280;4874;43.568;27.824;2022-10-14T10:17:53;99380.13;;;17.78;100.00
9672;BME280;4874;43.568;27.824;2022-10-14T10:20:29;99382.72;;;17.41;100.00
9672;BME280;4874;43.568;27.824;2022-10-14T10:23:22;99371.56;;;17.60;100.00
9672;BME280;4874;43.568;27.824;2022-10-14T10:26:14;99351.69;;;17.46;100.00
9672;BME280;4874;43.568;27.824;2022-10-14T10:28:46;99341.88;;;17.76;100.00
9672;BME280;4874;43.568;27.824;2022-10-14T10:31:30;99365.31;;;18.42;100.00
9672;BME280;4874;43.568;27.824;2022-10-14T10:36:54;99378.00;;;17.74;100.00
9672;BME280;4874;43.568;27.824;2022-10-14T10:42:33;99372.16;;;17.47;100.00
9672;BME280;4874;43.568;27.824;2022-10-14T11:18:07;99360.03;;;17.43;100.00
9672;BME280;4874;43.568;27.824;2022-10-14T11:20:58;99357.84;;;17.55;100.00
9672;BME280;4874;43.568;27.824;2022-10-14T11:23:49;99368.22;;;17.58;100.00
9672;BME280;4874;43.568;27.824;2022-10-14T11:37:30;99353.00;;;17.50;100.00
9672;BME280;4874;43.568;27.824;2022-10-14T11:43:11;99356.03;;;17.17;100.00
9672;BME280;4874;43.568;27.824;2022-10-14T11:45:44;99363.34;;;17.31;100.00
9672;BME280;4874;43.568;27.824;2022-10-14T11:51:26;99361.00;;;16.97;100.00
9672;BME280;4874;43.568;27.824;2022-10-14T11:54:02;99360.81;;;16.99;100.00
9672;BME280;4874;43.568;27.824;2022-10-14T11:59:18;99357.69;;;17.18;100.00
9672;BME280;4874;43.568;27.824;2022-10-14T12:01:49;99351.09;;;16.98;100.00
9672;BME280;4874;43.568;27.824;2022-10-14T12:04:27;99349.44;;;16.97;100.00
9672;BME280;4874;43.568;27.824;2022-10-14T12:07:01;99353.75;;;17.06;100.00
9672;BME280;4874;43.568;27.824;2022-10-14T12:09:41;99343.09;;;17.20;100.00
9672;BME280;4874;43.568;27.824;2022-10-14T12:12:16;99345.69;;;17.06;100.00
9672;BME280;4874;43.568;27.824;2022-10-14T12:14:59;99339.28;;;16.84;100.00
9672;BME280;4874;43.568;27.824;2022-10-14T12:17:44;99367.69;;;16.55;100.00
9672;BME280;4874;43.568;27.824;2022-10-14T12:22:48;99341.94;;;16.37;100.00
9672;BME280;4874;43.568;27.824;2022-10-14T12:25:17;99332.34;;;16.59;100.00
9672;BME280;4874;43.568;27.824;2022-10-14T12:27:46;99348.06;;;17.01;100.00
9672;BME280;4874;43.568;27.824;2022-10-14T12:30:31;99347.84;;;16.80;100.00
9672;BME280;4874;43.568;27.824;2022-10-14T12:33:04;99354.34;;;16.93;100.00
9672;BME280;4874;43.568;27.824;2022-10-14T12:35:51;99346.88;;;16.65;100.00
9672;BME280;4874;43.568;27.824;2022-10-14T12:38:20;99338.84;;;16.73;100.00
9672;BME280;4874;43.568;27.824;2022-10-14T12:40:47;99341.78;;;16.86;100.00
9672;BME280;4874;43.568;27.824;2022-10-14T12:43:25;99334.59;;;16.86;100.00
9672;BME280;4874;43.568;27.824;2022-10-14T12:46:12;99344.38;;;16.63;100.00
9672;BME280;4874;43.568;27.824;2022-10-14T12:48:48;99339.22;;;16.45;100.00
9672;BME280;4874;43.568;27.824;2022-10-14T12:51:23;99348.81;;;16.48;100.00
9672;BME280;4874;43.568;27.824;2022-10-14T12:54:04;99346.63;;;16.35;100.00
9672;BME280;4874;43.568;27.824;2022-10-14T12:56:36;99333.25;;;16.27;100.00
9672;BME280;4874;43.568;27.824;2022-10-14T12:59:06;99348.97;;;16.30;100.00
9672;BME280;4874;43.568;27.824;2022-10-14T13:01:34;99351.69;;;16.22;100.00
9672;BME280;4874;43.568;27.824;2022-10-14T13:04:05;99344.59;;;16.37;100.00
9672;BME280;4874;43.568;27.824;2022-10-14T13:06:41;99343.63;;;16.30;100.00
9672;BME280;4874;43.568;27.824;2022-10-14T13:11:45;99347.13;;;16.39;100.00
9672;BME280;4874;43.568;27.824;2022-10-14T13:17:45;99349.53;;;16.18;100.00
9672;BME280;4874;43.568;27.824;2022-10-14T13:26:16;99347.38;;;16.05;100.00
9672;BME280;4874;43.568;27.824;2022-10-14T13:29:06;99341.84;;;16.07;100.00
9672;BME280;4874;43.568;27.824;2022-10-14T13:39:33;99325.56;;;16.16;100.00
9672;BME280;4874;43.568;27.824;2022-10-14T13:42:00;99327.09;;;16.11;100.00
9672;BME280;4874;43.568;27.824;2022-10-14T13:44:28;99333.66;;;16.00;100.00
9672;BME280;4874;43.568;27.824;2022-10-14T13:46:56;99338.31;;;16.14;100.00
9672;BME280;4874;43.568;27.824;2022-10-14T13:49:33;99341.00;;;15.98;100.00
9672;BME280;4874;43.568;27.824;2022-10-14T13:52:04;99330.00;;;15.85;100.00
9672;BME280;4874;43.568;27.824;2022-10-14T13:54:33;99325.13;;;15.73;100.00
9672;BME280;4874;43.568;27.824;2022-10-14T13:57:09;99339.50;;;15.88;100.00
9672;BME280;4874;43.568;27.824;2022-10-14T13:59:56;99336.31;;;15.92;100.00
9672;BME280;4874;43.568;27.824;2022-10-14T14:02:43;99329.44;;;15.98;100.00
9672;BME280;4874;43.568;27.824;2022-10-14T14:05:16;99327.31;;;15.85;100.00
9672;BME280;4874;43.568;27.824;2022-10-14T14:07:45;99332.28;;;16.04;100.00
9672;BME280;4874;43.568;27.824;2022-10-14T14:10:33;99332.31;;;15.88;100.00
9672;BME280;4874;43.568;27.824;2022-10-14T14:13:10;99325.97;;;15.81;100.00
9672;BME280;4874;43.568;27.824;2022-10-14T14:15:38;99320.47;;;15.75;100.00
9672;BME280;4874;43.568;27.824;2022-10-14T14:18:45;99327.97;;;15.71;100.00
9672;BME280;4874;43.568;27.824;2022-10-14T14:21:23;99323.97;;;15.83;100.00
9672;BME280;4874;43.568;27.824;2022-10-14T14:24:00;99327.97;;;15.63;100.00
9672;BME280;4874;43.568;27.824;2022-10-14T14:26:33;99319.94;;;15.55;100.00
9672;BME280;4874;43.568;27.824;2022-10-14T14:29:04;99322.59;;;15.63;100.00
9672;BME280;4874;43.568;27.824;2022-10-14T14:31:32;99321.28;;;15.75;100.00
9672;BME280;4874;43.568;27.824;2022-10-14T14:34:21;99332.81;;;15.76;100.00
9672;BME280;4874;43.568;27.824;2022-10-14T14:36:49;99337.16;;;15.69;100.00
9672;BME280;4874;43.568;27.824;2022-10-14T14:39:24;99332.00;;;15.51;100.00
9672;BME280;4874;43.568;27.824;2022-10-14T14:41:52;99326.16;;;15.48;100.00
9672;BME280;4874;43.568;27.824;2022-10-14T14:44:22;99324.31;;;15.56;100.00
9672;BME280;4874;43.568;27.824;2022-10-14T14:46:55;99327.31;;;15.45;100.00
9672;BME280;4874;43.568;27.824;2022-10-14T14:49:29;99327.00;;;15.56;100.00
9672;BME280;4874;43.568;27.824;2022-10-14T14:51:57;99325.13;;;15.41;100.00
9672;BME280;4874;43.568;27.824;2022-10-14T14:54:25;99302.19;;;15.22;100.00
9672;BME280;4874;43.568;27.824;2022-10-14T14:57:05;99322.22;;;15.26;100.00
9672;BME280;4874;43.568;27.824;2022-10-14T14:59:38;99325.28;;;15.39;100.00
9672;BME280;4874;43.568;27.824;2022-10-14T15:02:15;99321.38;;;15.17;100.00
9672;BME280;4874;43.568;27.824;2022-10-14T15:04:43;99319.38;;;15.19;100.00
9672;BME280;4874;43.568;27.824;2022-10-14T15:07:13;99323.88;;;15.19;100.00
9672;BME280;4874;43.568;27.824;2022-10-14T15:09:49;99322.41;;;15.24;100.00
9672;BME280;4874;43.568;27.824;2022-10-14T15:14:57;99336.78;;;15.23;100.00
9672;BME280;4874;43.568;27.824;2022-10-14T15:17:31;99328.59;;;15.25;100.00
9672;BME280;4874;43.568;27.824;2022-10-14T15:22:33;99335.03;;;14.98;100.00
9672;BME280;4874;43.568;27.824;2022-10-14T15:30:20;99332.59;;;15.13;100.00
9672;BME280;4874;43.568;27.824;2022-10-14T15:33:14;99337.25;;;15.03;100.00
9672;BME280;4874;43.568;27.824;2022-10-14T15:35:56;99349.53;;;14.88;100.00
9672;BME280;4874;43.568;27.824;2022-10-14T15:38:24;99347.03;;;14.86;100.00
9672;BME280;4874;43.568;27.824;2022-10-14T15:40:51;99347.72;;;14.88;100.00
9672;BME280;4874;43.568;27.824;2022-10-14T15:43:22;99347.66;;;15.30;100.00